Flight Track Log - Related Links

Times and Time Zones

All times are in EDT time to prevent confusion due to time zone crossing. See the JZA7927 flight status page for this flight to view local times or setup timezone preferences in your user account.

Time Position Orientation Groundspeed Altitude Reporting Facility
EDT Latitude Longitude Course Direction KTS MPH feet Rate Location/Type
Fri 06:15:06 AM 39.2000 -76.6667 North 114 131 800  Level Potomac TRACON
Fri 06:16:00 AM 39.2167 -76.7000 303° West 126 145 1,900 1,176 Climbing Potomac TRACON
Fri 06:16:48 AM 39.2500 -76.7167 339° North 132 152 2,800 1,000 Climbing Potomac TRACON
Fri 06:17:48 AM 39.2833 -76.7500 322° Northwest 146 168 3,700 895 Climbing Potomac TRACON
Fri 06:18:00 AM 39.4135 -76.6599 21° North  Level FlightAware Approximate
Fri 06:18:42 AM 39.3167 -76.7500 360° North 160 184 4,500  Level Potomac TRACON
Fri 06:19:00 AM 39.4714 -76.6246 27° Northeast  Level FlightAware Approximate
Fri 06:19:42 AM 39.3500 -76.7333 21° North 168 193 5,500  Level Potomac TRACON
Fri 06:20:00 AM 39.5340 -76.6167 North  Level FlightAware Approximate
Fri 06:21:19 AM 39.4217 -76.7133 12° North 171 197 7,000  Level New York Center
Fri 06:22:17 AM 39.4703 -76.6986 13° North 159 183 7,900 763 Climbing New York Center
Fri 06:23:17 AM 39.5128 -76.6861 13° North 164 189 8,500 694 Climbing New York Center
Fri 06:24:18 AM 39.5678 -76.6664 15° North 169 194 9,300 744 Climbing New York Center
Fri 06:25:18 AM 39.6125 -76.6514 14° North 177 204 10,000 793 Climbing New York Center
Fri 06:26:19 AM 39.6717 -76.6347 12° North 182 209 10,900 807 Climbing New York Center
Fri 06:27:17 AM 39.7183 -76.6197 14° North 182 209 11,600 857 Climbing New York Center
Fri 06:28:18 AM 39.7747 -76.6189 North 182 209 12,600 908 Climbing New York Center
Fri 06:29:16 AM 39.8103 -76.6544 322° Northwest 175 201 13,400 706 Climbing New York Center
Fri 06:30:17 AM 39.8544 -76.6906 328° Northwest 180 207 14,000 295 Climbing New York Center
Fri 06:31:18 AM 39.8964 -76.7264 327° Northwest 192 221 14,000  Level New York Center
Fri 06:32:18 AM 39.9522 -76.7747 326° Northwest 210 242 14,000  Level New York Center
Fri 06:33:19 AM 39.9983 -76.8139 327° Northwest 210 242 14,000 400 Level New York Center
Fri 06:34:18 AM 40.0544 -76.8594 328° Northwest 217 250 14,800 605 Climbing New York Center
Fri 06:35:18 AM 40.0964 -76.8956 327° Northwest 205 236 15,200 446 Climbing New York Center
Fri 06:36:19 AM 40.1481 -76.9408 326° Northwest 205 236 15,700 400 Climbing New York Center
Fri 06:37:18 AM 40.1919 -76.9775 327° Northwest 205 236 16,000 150 Climbing New York Center
Fri 06:38:19 AM 40.2458 -77.0231 327° Northwest 205 236 16,000  Level New York Center
Fri 06:39:17 AM 40.2939 -77.0628 328° Northwest 205 236 16,000  Level New York Center
Fri 06:40:18 AM 40.3633 -77.0500 North 205 236 16,000  Level New York Center
Fri 06:41:19 AM 40.4189 -77.0250 19° North 223 257 16,000  Level New York Center
Fri 06:42:17 AM 40.4819 -77.0525 342° North 217 250 16,000  Level New York Center
Fri 06:43:18 AM 40.5303 -77.0869 332° Northwest 217 250 16,000  Level New York Center
Fri 06:44:18 AM 40.5908 -77.1228 336° Northwest 224 258 16,000  Level New York Center
Fri 06:45:17 AM 40.6392 -77.1544 334° Northwest 218 251 16,000  Level New York Center
Fri 06:46:17 AM 40.6956 -77.1900 334° Northwest 213 245 16,000  Level New York Center
Fri 06:47:17 AM 40.7500 -77.2250 334° Northwest 213 245 16,000  Level New York Center
Fri 06:48:18 AM 40.8044 -77.2606 334° Northwest 213 245 16,000  Level New York Center
Fri 06:49:17 AM 40.8608 -77.2933 336° Northwest 213 245 16,000  Level New York Center
Fri 06:50:18 AM 40.9172 -77.3289 335° Northwest 213 245 16,000  Level New York Center
Fri 06:51:18 AM 40.9736 -77.3644 335° Northwest 213 245 16,000  Level New York Center
Fri 06:53:20 AM 41.0850 -77.4369 334° Northwest 210 242 16,000  Level Cleveland Center
Fri 06:54:20 AM 41.1400 -77.4703 335° Northwest 210 242 16,000  Level Cleveland Center
Fri 06:55:20 AM 41.1933 -77.5064 333° Northwest 210 242 16,000  Level Cleveland Center
Fri 06:56:20 AM 41.2547 -77.5447 335° Northwest 210 242 16,000  Level Cleveland Center
Fri 06:57:20 AM 41.3078 -77.5783 335° Northwest 210 242 16,000  Level Cleveland Center
Fri 06:58:20 AM 41.3608 -77.6117 335° Northwest 210 242 16,000 50 Level Cleveland Center
Fri 06:59:20 AM 41.4139 -77.6481 333° Northwest 210 242 16,100 50 Climbing Cleveland Center
Fri 07:00:20 AM 41.4667 -77.6789 336° Northwest 210 242 16,100  Level Cleveland Center
Fri 07:01:20 AM 41.5197 -77.7156 333° Northwest 210 242 16,100  Level Cleveland Center
Fri 07:02:20 AM 41.5728 -77.7492 335° Northwest 210 242 16,100  Level Cleveland Center
Fri 07:03:20 AM 41.6256 -77.7831 334° Northwest 205 236 16,100  Level Cleveland Center
Fri 07:04:20 AM 41.6764 -77.8169 334° Northwest 205 236 16,100  Level Cleveland Center
Fri 07:05:20 AM 41.7294 -77.8508 335° Northwest 205 236 16,100  Level Cleveland Center
Fri 07:06:20 AM 41.7803 -77.8850 333° Northwest 205 236 16,100  Level Cleveland Center
Fri 07:07:20 AM 41.8311 -77.9161 335° Northwest 205 236 16,100  Level Cleveland Center
Fri 07:08:20 AM 41.8842 -77.9531 333° Northwest 205 236 16,100  Level Cleveland Center
Fri 07:09:20 AM 41.9369 -77.9872 334° Northwest 205 236 16,100  Level Cleveland Center
Fri 07:10:20 AM 41.9919 -78.0214 335° Northwest 205 236 16,100  Level Cleveland Center
Fri 07:11:20 AM 42.0428 -78.0556 333° Northwest 205 236 16,100  Level Cleveland Center
Fri 07:12:20 AM 42.0956 -78.0897 334° Northwest 205 236 16,100  Level Cleveland Center
Fri 07:13:20 AM 42.1483 -78.1242 334° Northwest 205 236 16,100  Level Cleveland Center
Fri 07:14:20 AM 42.2014 -78.1586 334° Northwest 205 236 16,100  Level Cleveland Center
Fri 07:15:20 AM 42.2542 -78.1931 334° Northwest 205 236 16,100  Level Cleveland Center
Fri 07:16:20 AM 42.3047 -78.2275 333° Northwest 205 236 16,100 -50 Level Cleveland Center
Fri 07:17:20 AM 42.3578 -78.2622 334° Northwest 205 236 16,000 -50 Descending Cleveland Center
Fri 07:18:20 AM 42.4106 -78.2997 332° Northwest 205 236 16,000  Level Cleveland Center
Fri 07:19:20 AM 42.4633 -78.3344 334° Northwest 205 236 16,000  Level Cleveland Center
Fri 07:20:20 AM 42.5161 -78.3664 336° Northwest 205 236 16,000  Level Cleveland Center
Fri 07:21:20 AM 42.5625 -78.3983 333° Northwest 205 236 16,000  Level Cleveland Center
Fri 07:22:20 AM 42.6153 -78.4333 334° Northwest 205 236 16,000 -50 Level Cleveland Center
Fri 07:23:20 AM 42.6681 -78.4711 332° Northwest 205 236 15,900 -550 Descending Cleveland Center
Fri 07:24:20 AM 42.7272 -78.5114 333° Northwest 211 243 14,900 -950 Descending Cleveland Center
Fri 07:25:20 AM 42.7842 -78.5519 332° Northwest 222 255 14,000 -450 Descending Cleveland Center
Fri 07:26:20 AM 42.8453 -78.5897 336° Northwest 222 255 14,000  Level Cleveland Center
Fri 07:27:20 AM 42.9000 -78.6275 333° Northwest 222 255 14,000  Level Cleveland Center
Fri 07:28:20 AM 42.9489 -78.6714 327° Northwest 217 250 14,000 -150 Level Cleveland Center
Fri 07:29:20 AM 42.9811 -78.7386 303° West 211 243 13,700 -300 Descending Cleveland Center

Login

Don't have an account? Register now (free) for customized features, flight alerts, and more!